sensor_id;sensor_type;location;lat;lon;timestamp;temperature;humidity
55064;DHT22;40963;52.168;21.296;2023-02-01T00:01:29;2.60;99.90
55064;DHT22;40963;52.168;21.296;2023-02-01T00:03:54;2.70;99.90
55064;DHT22;40963;52.168;21.296;2023-02-01T00:06:20;2.70;99.90
55064;DHT22;40963;52.168;21.296;2023-02-01T00:08:46;2.70;99.90
55064;DHT22;40963;52.168;21.296;2023-02-01T00:11:12;2.70;99.90
55064;DHT22;40963;52.168;21.296;2023-02-01T00:13:40;2.70;99.90
55064;DHT22;40963;52.168;21.296;2023-02-01T00:16:27;2.80;99.90
55064;DHT22;40963;52.168;21.296;2023-02-01T00:18:59;2.80;99.90
55064;DHT22;40963;52.168;21.296;2023-02-01T00:21:25;2.80;99.90
55064;DHT22;40963;52.168;21.296;2023-02-01T00:23:50;2.80;99.90
55064;DHT22;40963;52.168;21.296;2023-02-01T00:26:19;2.80;99.90
55064;DHT22;40963;52.168;21.296;2023-02-01T00:28:45;2.80;99.90
55064;DHT22;40963;52.168;21.296;2023-02-01T00:31:11;2.80;99.90
55064;DHT22;40963;52.168;21.296;2023-02-01T00:33:37;2.80;99.90
55064;DHT22;40963;52.168;21.296;2023-02-01T00:36:05;2.80;99.90
55064;DHT22;40963;52.168;21.296;2023-02-01T00:38:32;2.80;99.90
55064;DHT22;40963;52.168;21.296;2023-02-01T00:41:06;2.80;99.90
55064;DHT22;40963;52.168;21.296;2023-02-01T00:43:33;2.80;99.90
55064;DHT22;40963;52.168;21.296;2023-02-01T00:45:59;2.80;99.90
55064;DHT22;40963;52.168;21.296;2023-02-01T00:48:25;2.80;99.90
55064;DHT22;40963;52.168;21.296;2023-02-01T00:50:51;2.80;99.90
55064;DHT22;40963;52.168;21.296;2023-02-01T00:53:17;2.80;99.90
55064;DHT22;40963;52.168;21.296;2023-02-01T00:55:46;2.90;99.90
55064;DHT22;40963;52.168;21.296;2023-02-01T00:58:12;2.90;99.90
55064;DHT22;40963;52.168;21.296;2023-02-01T01:00:38;2.90;99.90
55064;DHT22;40963;52.168;21.296;2023-02-01T01:03:04;2.90;99.90
55064;DHT22;40963;52.168;21.296;2023-02-01T01:05:47;3.00;99.90
55064;DHT22;40963;52.168;21.296;2023-02-01T01:08:13;3.00;99.90
55064;DHT22;40963;52.168;21.296;2023-02-01T01:10:39;3.10;99.90
55064;DHT22;40963;52.168;21.296;2023-02-01T01:13:05;3.10;99.90
55064;DHT22;40963;52.168;21.296;2023-02-01T01:15:35;3.20;99.90
55064;DHT22;40963;52.168;21.296;2023-02-01T01:18:01;3.10;99.90
55064;DHT22;40963;52.168;21.296;2023-02-01T01:20:27;3.20;99.90
55064;DHT22;40963;52.168;21.296;2023-02-01T01:22:52;3.20;99.90
55064;DHT22;40963;52.168;21.296;2023-02-01T01:25:18;3.20;99.90
55064;DHT22;40963;52.168;21.296;2023-02-01T01:27:44;3.20;99.90
55064;DHT22;40963;52.168;21.296;2023-02-01T01:30:10;3.20;99.90
55064;DHT22;40963;52.168;21.296;2023-02-01T01:32:35;3.20;99.90
55064;DHT22;40963;52.168;21.296;2023-02-01T01:35:01;3.20;99.90
55064;DHT22;40963;52.168;21.296;2023-02-01T01:37:27;3.20;99.90
55064;DHT22;40963;52.168;21.296;2023-02-01T01:39:52;3.20;99.90
55064;DHT22;40963;52.168;21.296;2023-02-01T01:42:20;3.20;99.90
55064;DHT22;40963;52.168;21.296;2023-02-01T01:45:01;3.20;99.90
55064;DHT22;40963;52.168;21.296;2023-02-01T01:47:33;3.20;99.90
55064;DHT22;40963;52.168;21.296;2023-02-01T01:50:02;3.20;99.90
55064;DHT22;40963;52.168;21.296;2023-02-01T01:52:28;3.20;99.90
55064;DHT22;40963;52.168;21.296;2023-02-01T01:54:54;3.20;99.90
55064;DHT22;40963;52.168;21.296;2023-02-01T01:57:24;3.20;99.90
55064;DHT22;40963;52.168;21.296;2023-02-01T02:00:19;3.20;99.90
55064;DHT22;40963;52.168;21.296;2023-02-01T02:02:46;3.10;99.90
55064;DHT22;40963;52.168;21.296;2023-02-01T02:05:12;3.10;99.90
55064;DHT22;40963;52.168;21.296;2023-02-01T02:07:45;3.10;99.90
55064;DHT22;40963;52.168;21.296;2023-02-01T02:10:12;3.10;99.90
55064;DHT22;40963;52.168;21.296;2023-02-01T02:12:42;3.10;99.90
55064;DHT22;40963;52.168;21.296;2023-02-01T02:15:11;3.10;99.90
55064;DHT22;40963;52.168;21.296;2023-02-01T02:18:08;3.10;99.90
55064;DHT22;40963;52.168;21.296;2023-02-01T02:29:01;3.10;99.90
55064;DHT22;40963;52.168;21.296;2023-02-01T02:31:46;3.10;99.90
55064;DHT22;40963;52.168;21.296;2023-02-01T02:45:27;3.10;99.90
55064;DHT22;40963;52.168;21.296;2023-02-01T02:48:47;3.00;99.90
55064;DHT22;40963;52.168;21.296;2023-02-01T02:51:53;3.00;99.90
55064;DHT22;40963;52.168;21.296;2023-02-01T02:54:43;3.00;99.90
55064;DHT22;40963;52.168;21.296;2023-02-01T02:57:30;3.00;99.90
55064;DHT22;40963;52.168;21.296;2023-02-01T03:00:20;3.00;99.90
55064;DHT22;40963;52.168;21.296;2023-02-01T03:03:06;3.00;99.90
55064;DHT22;40963;52.168;21.296;2023-02-01T03:05:51;3.00;99.90
55064;DHT22;40963;52.168;21.296;2023-02-01T03:08:22;3.10;99.90
55064;DHT22;40963;52.168;21.296;2023-02-01T03:13:49;3.10;99.90
55064;DHT22;40963;52.168;21.296;2023-02-01T03:16:24;3.10;99.90
55064;DHT22;40963;52.168;21.296;2023-02-01T03:19:01;3.10;99.90
55064;DHT22;40963;52.168;21.296;2023-02-01T03:24:02;3.10;99.90
55064;DHT22;40963;52.168;21.296;2023-02-01T03:26:31;3.20;99.90
55064;DHT22;40963;52.168;21.296;2023-02-01T03:29:05;3.10;99.90
55064;DHT22;40963;52.168;21.296;2023-02-01T03:31:33;3.20;99.90
55064;DHT22;40963;52.168;21.296;2023-02-01T03:33:59;3.20;99.90
55064;DHT22;40963;52.168;21.296;2023-02-01T03:36:31;3.20;99.90
55064;DHT22;40963;52.168;21.296;2023-02-01T03:39:15;3.20;99.90
55064;DHT22;40963;52.168;21.296;2023-02-01T03:41:51;3.20;99.90
55064;DHT22;40963;52.168;21.296;2023-02-01T03:44:23;3.20;99.90
55064;DHT22;40963;52.168;21.296;2023-02-01T03:46:57;3.20;99.90
55064;DHT22;40963;52.168;21.296;2023-02-01T03:49:33;3.20;99.90
55064;DHT22;40963;52.168;21.296;2023-02-01T03:52:00;3.20;99.90
55064;DHT22;40963;52.168;21.296;2023-02-01T03:54:28;3.30;99.90
55064;DHT22;40963;52.168;21.296;2023-02-01T03:56:57;3.30;99.90
55064;DHT22;40963;52.168;21.296;2023-02-01T03:59:25;3.30;99.90
55064;DHT22;40963;52.168;21.296;2023-02-01T04:01:50;3.30;99.90
55064;DHT22;40963;52.168;21.296;2023-02-01T04:04:16;3.20;99.90
55064;DHT22;40963;52.168;21.296;2023-02-01T04:06:49;3.20;99.90
55064;DHT22;40963;52.168;21.296;2023-02-01T04:09:15;3.20;99.90
55064;DHT22;40963;52.168;21.296;2023-02-01T04:11:40;3.20;99.90
55064;DHT22;40963;52.168;21.296;2023-02-01T04:14:06;3.10;99.90
55064;DHT22;40963;52.168;21.296;2023-02-01T04:16:32;3.10;99.90
55064;DHT22;40963;52.168;21.296;2023-02-01T04:18:58;3.10;99.90
55064;DHT22;40963;52.168;21.296;2023-02-01T04:21:27;3.10;99.90
55064;DHT22;40963;52.168;21.296;2023-02-01T04:23:53;3.10;99.90
55064;DHT22;40963;52.168;21.296;2023-02-01T04:26:20;3.10;99.90
55064;DHT22;40963;52.168;21.296;2023-02-01T04:28:46;3.10;99.90
55064;DHT22;40963;52.168;21.296;2023-02-01T04:31:16;3.10;99.90
55064;DHT22;40963;52.168;21.296;2023-02-01T04:33:42;3.10;99.90
55064;DHT22;40963;52.168;21.296;2023-02-01T04:36:07;3.10;99.90
55064;DHT22;40963;52.168;21.296;2023-02-01T04:38:33;3.10;99.90
55064;DHT22;40963;52.168;21.296;2023-02-01T04:40:59;3.10;99.90
55064;DHT22;40963;52.168;21.296;2023-02-01T04:43:26;3.10;99.90
55064;DHT22;40963;52.168;21.296;2023-02-01T04:45:51;3.10;99.90
55064;DHT22;40963;52.168;21.296;2023-02-01T04:48:18;3.10;99.90
55064;DHT22;40963;52.168;21.296;2023-02-01T04:50:45;3.10;99.90
55064;DHT22;40963;52.168;21.296;2023-02-01T04:53:16;3.20;99.90
55064;DHT22;40963;52.168;21.296;2023-02-01T04:55:43;3.20;99.90
55064;DHT22;40963;52.168;21.296;2023-02-01T04:58:09;3.20;99.90
55064;DHT22;40963;52.168;21.296;2023-02-01T05:00:36;3.20;99.90
55064;DHT22;40963;52.168;21.296;2023-02-01T05:03:02;3.20;99.90
55064;DHT22;40963;52.168;21.296;2023-02-01T05:05:28;3.20;99.90
55064;DHT22;40963;52.168;21.296;2023-02-01T05:07:54;3.30;99.90
55064;DHT22;40963;52.168;21.296;2023-02-01T05:10:20;3.30;99.90
55064;DHT22;40963;52.168;21.296;2023-02-01T05:12:46;3.30;99.90
55064;DHT22;40963;52.168;21.296;2023-02-01T05:15:31;3.30;99.90
55064;DHT22;40963;52.168;21.296;2023-02-01T05:17:57;3.30;99.90
55064;DHT22;40963;52.168;21.296;2023-02-01T05:20:23;3.30;99.90
55064;DHT22;40963;52.168;21.296;2023-02-01T05:22:49;3.40;99.90
55064;DHT22;40963;52.168;21.296;2023-02-01T05:25:15;3.40;99.90
55064;DHT22;40963;52.168;21.296;2023-02-01T05:27:40;3.40;99.90
55064;DHT22;40963;52.168;21.296;2023-02-01T05:30:07;3.40;99.90
55064;DHT22;40963;52.168;21.296;2023-02-01T05:32:33;3.40;99.90
55064;DHT22;40963;52.168;21.296;2023-02-01T05:34:59;3.40;99.90
55064;DHT22;40963;52.168;21.296;2023-02-01T05:37:24;3.50;99.90
55064;DHT22;40963;52.168;21.296;2023-02-01T05:39:50;3.40;99.90
55064;DHT22;40963;52.168;21.296;2023-02-01T05:42:16;3.40;99.90
55064;DHT22;40963;52.168;21.296;2023-02-01T05:44:42;3.50;99.90
55064;DHT22;40963;52.168;21.296;2023-02-01T05:47:07;3.50;99.90
55064;DHT22;40963;52.168;21.296;2023-02-01T05:49:33;3.40;99.90
55064;DHT22;40963;52.168;21.296;2023-02-01T05:51:59;3.50;99.90
55064;DHT22;40963;52.168;21.296;2023-02-01T05:54:24;3.50;99.90
55064;DHT22;40963;52.168;21.296;2023-02-01T05:56:50;3.50;99.90
55064;DHT22;40963;52.168;21.296;2023-02-01T05:59:16;3.50;99.90
55064;DHT22;40963;52.168;21.296;2023-02-01T06:01:41;3.50;99.90
55064;DHT22;40963;52.168;21.296;2023-02-01T06:04:07;3.50;99.90
55064;DHT22;40963;52.168;21.296;2023-02-01T06:06:33;3.50;99.90
55064;DHT22;40963;52.168;21.296;2023-02-01T06:08:59;3.50;99.90
55064;DHT22;40963;52.168;21.296;2023-02-01T06:11:25;3.50;99.90
55064;DHT22;40963;52.168;21.296;2023-02-01T06:13:51;3.50;99.90
55064;DHT22;40963;52.168;21.296;2023-02-01T06:16:17;3.50;99.90
55064;DHT22;40963;52.168;21.296;2023-02-01T06:18:43;3.50;99.90
55064;DHT22;40963;52.168;21.296;2023-02-01T06:21:08;3.50;99.90
55064;DHT22;40963;52.168;21.296;2023-02-01T06:23:34;3.50;99.90
55064;DHT22;40963;52.168;21.296;2023-02-01T06:26:05;3.50;99.90
55064;DHT22;40963;52.168;21.296;2023-02-01T06:28:32;3.50;99.90
55064;DHT22;40963;52.168;21.296;2023-02-01T06:31:02;3.50;99.90
55064;DHT22;40963;52.168;21.296;2023-02-01T06:33:28;3.60;99.90
55064;DHT22;40963;52.168;21.296;2023-02-01T06:35:58;3.50;99.90
55064;DHT22;40963;52.168;21.296;2023-02-01T06:38:24;3.60;99.90
55064;DHT22;40963;52.168;21.296;2023-02-01T06:40:55;3.50;99.90
55064;DHT22;40963;52.168;21.296;2023-02-01T06:43:22;3.60;99.90
55064;DHT22;40963;52.168;21.296;2023-02-01T06:45:48;3.60;99.90
55064;DHT22;40963;52.168;21.296;2023-02-01T06:48:14;3.60;99.90
55064;DHT22;40963;52.168;21.296;2023-02-01T06:50:39;3.60;99.90
55064;DHT22;40963;52.168;21.296;2023-02-01T06:53:05;3.60;99.90
55064;DHT22;40963;52.168;21.296;2023-02-01T06:55:31;3.60;99.90
55064;DHT22;40963;52.168;21.296;2023-02-01T06:57:56;3.60;99.90
55064;DHT22;40963;52.168;21.296;2023-02-01T07:00:23;3.60;99.90
55064;DHT22;40963;52.168;21.296;2023-02-01T07:02:49;3.60;99.90
55064;DHT22;40963;52.168;21.296;2023-02-01T07:05:15;3.70;99.90
55064;DHT22;40963;52.168;21.296;2023-02-01T07:07:41;3.70;99.90
55064;DHT22;40963;52.168;21.296;2023-02-01T07:10:07;3.70;99.90
55064;DHT22;40963;52.168;21.296;2023-02-01T07:12:33;3.70;99.90
55064;DHT22;40963;52.168;21.296;2023-02-01T07:14:59;3.70;99.90
55064;DHT22;40963;52.168;21.296;2023-02-01T07:17:24;3.70;99.90
55064;DHT22;40963;52.168;21.296;2023-02-01T07:19:50;3.80;99.90
55064;DHT22;40963;52.168;21.296;2023-02-01T07:22:18;3.80;99.90
55064;DHT22;40963;52.168;21.296;2023-02-01T07:24:44;3.80;99.90
55064;DHT22;40963;52.168;21.296;2023-02-01T07:27:10;3.80;99.90
55064;DHT22;40963;52.168;21.296;2023-02-01T07:29:35;3.80;99.90
55064;DHT22;40963;52.168;21.296;2023-02-01T07:32:01;3.80;99.90
55064;DHT22;40963;52.168;21.296;2023-02-01T07:34:28;3.80;99.90
55064;DHT22;40963;52.168;21.296;2023-02-01T07:36:54;3.80;99.90
55064;DHT22;40963;52.168;21.296;2023-02-01T07:39:19;3.80;99.90
55064;DHT22;40963;52.168;21.296;2023-02-01T07:41:45;3.80;99.90
55064;DHT22;40963;52.168;21.296;2023-02-01T07:44:11;3.80;99.90
55064;DHT22;40963;52.168;21.296;2023-02-01T07:46:37;3.80;99.90
55064;DHT22;40963;52.168;21.296;2023-02-01T07:49:05;3.80;99.90
55064;DHT22;40963;52.168;21.296;2023-02-01T07:51:31;3.80;99.90
55064;DHT22;40963;52.168;21.296;2023-02-01T07:53:57;3.80;99.90
55064;DHT22;40963;52.168;21.296;2023-02-01T07:56:23;3.80;99.90
55064;DHT22;40963;52.168;21.296;2023-02-01T07:58:53;3.90;99.90
55064;DHT22;40963;52.168;21.296;2023-02-01T08:01:23;3.90;99.90
55064;DHT22;40963;52.168;21.296;2023-02-01T08:03:57;3.90;99.90
55064;DHT22;40963;52.168;21.296;2023-02-01T08:06:24;3.90;99.90
55064;DHT22;40963;52.168;21.296;2023-02-01T08:08:51;3.90;99.90
55064;DHT22;40963;52.168;21.296;2023-02-01T08:11:17;3.90;99.90
55064;DHT22;40963;52.168;21.296;2023-02-01T08:13:44;3.90;99.90
55064;DHT22;40963;52.168;21.296;2023-02-01T08:16:11;4.00;99.90
55064;DHT22;40963;52.168;21.296;2023-02-01T08:18:38;4.00;99.90
55064;DHT22;40963;52.168;21.296;2023-02-01T08:21:09;4.00;99.90
55064;DHT22;40963;52.168;21.296;2023-02-01T08:23:38;4.00;99.90
55064;DHT22;40963;52.168;21.296;2023-02-01T08:28:39;4.00;99.90
55064;DHT22;40963;52.168;21.296;2023-02-01T08:31:07;4.00;99.90
55064;DHT22;40963;52.168;21.296;2023-02-01T08:33:33;4.00;99.90
55064;DHT22;40963;52.168;21.296;2023-02-01T08:36:01;3.90;99.90
55064;DHT22;40963;52.168;21.296;2023-02-01T08:38:27;3.90;99.90
55064;DHT22;40963;52.168;21.296;2023-02-01T08:40:53;3.90;99.90
55064;DHT22;40963;52.168;21.296;2023-02-01T08:43:18;3.90;99.90
55064;DHT22;40963;52.168;21.296;2023-02-01T08:45:44;3.90;99.90
55064;DHT22;40963;52.168;21.296;2023-02-01T08:48:10;3.80;99.90
55064;DHT22;40963;52.168;21.296;2023-02-01T08:50:36;3.80;99.90
55064;DHT22;40963;52.168;21.296;2023-02-01T08:53:01;3.80;99.90
55064;DHT22;40963;52.168;21.296;2023-02-01T08:55:27;3.80;99.90
55064;DHT22;40963;52.168;21.296;2023-02-01T08:57:53;3.80;99.90
55064;DHT22;40963;52.168;21.296;2023-02-01T09:00:18;3.70;99.90
55064;DHT22;40963;52.168;21.296;2023-02-01T09:02:45;3.80;99.90
55064;DHT22;40963;52.168;21.296;2023-02-01T09:05:11;3.70;99.90
55064;DHT22;40963;52.168;21.296;2023-02-01T09:07:37;3.70;99.90
55064;DHT22;40963;52.168;21.296;2023-02-01T09:10:03;3.70;99.90
55064;DHT22;40963;52.168;21.296;2023-02-01T09:12:30;3.60;99.90
55064;DHT22;40963;52.168;21.296;2023-02-01T09:14:57;3.60;99.90
55064;DHT22;40963;52.168;21.296;2023-02-01T09:17:27;3.60;99.90
55064;DHT22;40963;52.168;21.296;2023-02-01T09:19:53;3.60;99.90
55064;DHT22;40963;52.168;21.296;2023-02-01T09:22:19;3.60;99.90
55064;DHT22;40963;52.168;21.296;2023-02-01T09:24:45;3.60;99.90
55064;DHT22;40963;52.168;21.296;2023-02-01T09:27:11;3.50;99.90
55064;DHT22;40963;52.168;21.296;2023-02-01T09:29:37;3.60;99.90
55064;DHT22;40963;52.168;21.296;2023-02-01T09:32:02;3.60;99.90
55064;DHT22;40963;52.168;21.296;2023-02-01T09:34:28;3.60;99.90
55064;DHT22;40963;52.168;21.296;2023-02-01T09:36:54;3.60;99.90
55064;DHT22;40963;52.168;21.296;2023-02-01T09:39:20;3.60;99.90
55064;DHT22;40963;52.168;21.296;2023-02-01T09:47:02;3.70;99.90
55064;DHT22;40963;52.168;21.296;2023-02-01T09:49:31;3.80;99.90
55064;DHT22;40963;52.168;21.296;2023-02-01T09:52:00;3.80;99.90
55064;DHT22;40963;52.168;21.296;2023-02-01T09:57:04;4.00;99.90
55064;DHT22;40963;52.168;21.296;2023-02-01T09:59:49;4.00;99.90
55064;DHT22;40963;52.168;21.296;2023-02-01T10:02:25;4.10;99.90
55064;DHT22;40963;52.168;21.296;2023-02-01T10:04:54;4.20;99.90
55064;DHT22;40963;52.168;21.296;2023-02-01T10:08:01;4.30;99.90
55064;DHT22;40963;52.168;21.296;2023-02-01T10:10:35;4.40;99.90
55064;DHT22;40963;52.168;21.296;2023-02-01T10:16:48;4.50;99.90
55064;DHT22;40963;52.168;21.296;2023-02-01T10:19:48;4.50;99.90
55064;DHT22;40963;52.168;21.296;2023-02-01T10:27:35;4.60;99.90
55064;DHT22;40963;52.168;21.296;2023-02-01T10:30:19;4.60;99.90
55064;DHT22;40963;52.168;21.296;2023-02-01T10:32:47;4.60;99.90
55064;DHT22;40963;52.168;21.296;2023-02-01T10:35:21;4.70;99.90
55064;DHT22;40963;52.168;21.296;2023-02-01T10:37:48;4.70;99.90
55064;DHT22;40963;52.168;21.296;2023-02-01T10:40:24;4.70;99.90
55064;DHT22;40963;52.168;21.296;2023-02-01T10:42:53;4.70;99.90
55064;DHT22;40963;52.168;21.296;2023-02-01T10:45:21;4.80;99.90
55064;DHT22;40963;52.168;21.296;2023-02-01T10:47:49;4.80;99.90
55064;DHT22;40963;52.168;21.296;2023-02-01T10:50:23;4.80;99.90
55064;DHT22;40963;52.168;21.296;2023-02-01T10:52:52;4.80;99.90
55064;DHT22;40963;52.168;21.296;2023-02-01T10:57:59;4.80;99.90
55064;DHT22;40963;52.168;21.296;2023-02-01T11:00:25;4.80;99.90
55064;DHT22;40963;52.168;21.296;2023-02-01T11:02:52;4.80;99.90
55064;DHT22;40963;52.168;21.296;2023-02-01T11:05:18;4.80;99.90
55064;DHT22;40963;52.168;21.296;2023-02-01T11:07:54;4.80;99.90
55064;DHT22;40963;52.168;21.296;2023-02-01T11:10:41;4.80;99.90
55064;DHT22;40963;52.168;21.296;2023-02-01T11:13:14;4.80;99.90
55064;DHT22;40963;52.168;21.296;2023-02-01T11:15:46;4.80;99.90
55064;DHT22;40963;52.168;21.296;2023-02-01T11:18:24;4.90;99.90
55064;DHT22;40963;52.168;21.296;2023-02-01T11:20:53;4.90;99.90
55064;DHT22;40963;52.168;21.296;2023-02-01T11:23:23;4.90;99.90
55064;DHT22;40963;52.168;21.296;2023-02-01T11:28:15;5.00;99.90
55064;DHT22;40963;52.168;21.296;2023-02-01T11:30:44;5.00;99.90
55064;DHT22;40963;52.168;21.296;2023-02-01T11:33:16;5.00;99.90
55064;DHT22;40963;52.168;21.296;2023-02-01T11:35:43;5.00;99.90
55064;DHT22;40963;52.168;21.296;2023-02-01T11:38:29;5.00;99.90
55064;DHT22;40963;52.168;21.296;2023-02-01T11:41:41;5.00;99.90
55064;DHT22;40963;52.168;21.296;2023-02-01T11:43:59;5.00;99.90
55064;DHT22;40963;52.168;21.296;2023-02-01T11:46:33;5.00;99.90
55064;DHT22;40963;52.168;21.296;2023-02-01T11:49:21;5.00;99.90
55064;DHT22;40963;52.168;21.296;2023-02-01T12:08:32;5.00;99.90
55064;DHT22;40963;52.168;21.296;2023-02-01T12:11:14;5.00;99.90
55064;DHT22;40963;52.168;21.296;2023-02-01T12:13:55;5.00;99.90
55064;DHT22;40963;52.168;21.296;2023-02-01T12:16:32;5.00;99.90
55064;DHT22;40963;52.168;21.296;2023-02-01T12:24:27;5.00;99.90
55064;DHT22;40963;52.168;21.296;2023-02-01T12:27:11;5.00;99.90
55064;DHT22;40963;52.168;21.296;2023-02-01T12:41:19;5.10;99.90
55064;DHT22;40963;52.168;21.296;2023-02-01T12:44:00;5.10;99.90
55064;DHT22;40963;52.168;21.296;2023-02-01T12:46:41;5.10;99.90
55064;DHT22;40963;52.168;21.296;2023-02-01T12:51:46;5.10;99.90
55064;DHT22;40963;52.168;21.296;2023-02-01T12:54:18;5.10;99.90
55064;DHT22;40963;52.168;21.296;2023-02-01T12:56:49;5.10;99.90
55064;DHT22;40963;52.168;21.296;2023-02-01T13:01:59;5.10;99.90
55064;DHT22;40963;52.168;21.296;2023-02-01T13:04:49;5.10;99.90
55064;DHT22;40963;52.168;21.296;2023-02-01T13:07:22;5.10;99.90
55064;DHT22;40963;52.168;21.296;2023-02-01T13:10:05;5.00;99.90
55064;DHT22;40963;52.168;21.296;2023-02-01T13:12:48;5.10;99.90
55064;DHT22;40963;52.168;21.296;2023-02-01T13:15:28;5.00;99.90
55064;DHT22;40963;52.168;21.296;2023-02-01T13:17:57;5.10;99.90
55064;DHT22;40963;52.168;21.296;2023-02-01T13:21:10;5.10;99.90
55064;DHT22;40963;52.168;21.296;2023-02-01T13:23:18;5.10;99.90
55064;DHT22;40963;52.168;21.296;2023-02-01T13:25:51;5.00;99.90
55064;DHT22;40963;52.168;21.296;2023-02-01T13:28:29;5.00;99.90
55064;DHT22;40963;52.168;21.296;2023-02-01T13:34:23;5.10;99.90
55064;DHT22;40963;52.168;21.296;2023-02-01T13:42:29;5.10;99.90
55064;DHT22;40963;52.168;21.296;2023-02-01T13:49:59;5.00;99.90
55064;DHT22;40963;52.168;21.296;2023-02-01T13:52:37;5.00;99.90
55064;DHT22;40963;52.168;21.296;2023-02-01T13:57:49;5.00;99.90
55064;DHT22;40963;52.168;21.296;2023-02-01T14:00:35;5.00;99.90
55064;DHT22;40963;52.168;21.296;2023-02-01T14:08:38;5.00;99.90
55064;DHT22;40963;52.168;21.296;2023-02-01T14:11:04;5.00;99.90
55064;DHT22;40963;52.168;21.296;2023-02-01T14:13:41;5.00;99.90
55064;DHT22;40963;52.168;21.296;2023-02-01T14:16:13;4.90;99.90
55064;DHT22;40963;52.168;21.296;2023-02-01T14:18:48;4.90;99.90
55064;DHT22;40963;52.168;21.296;2023-02-01T14:21:28;4.90;99.90
55064;DHT22;40963;52.168;21.296;2023-02-01T14:26:23;4.90;99.90
55064;DHT22;40963;52.168;21.296;2023-02-01T14:28:58;4.90;99.90
55064;DHT22;40963;52.168;21.296;2023-02-01T14:31:39;4.90;99.90
55064;DHT22;40963;52.168;21.296;2023-02-01T14:34:16;4.80;99.90
55064;DHT22;40963;52.168;21.296;2023-02-01T14:36:48;4.80;99.90
55064;DHT22;40963;52.168;21.296;2023-02-01T14:39:30;4.80;99.90
55064;DHT22;40963;52.168;21.296;2023-02-01T14:42:00;4.80;99.90
55064;DHT22;40963;52.168;21.296;2023-02-01T14:44:30;4.80;99.90
55064;DHT22;40963;52.168;21.296;2023-02-01T14:47:27;4.80;99.90
55064;DHT22;40963;52.168;21.296;2023-02-01T14:52:40;4.80;99.90
55064;DHT22;40963;52.168;21.296;2023-02-01T14:55:30;4.80;99.90
55064;DHT22;40963;52.168;21.296;2023-02-01T14:57:58;4.70;99.90
55064;DHT22;40963;52.168;21.296;2023-02-01T15:00:29;4.70;99.90
55064;DHT22;40963;52.168;21.296;2023-02-01T15:03:34;4.70;99.90
55064;DHT22;40963;52.168;21.296;2023-02-01T15:06:02;4.70;99.90
55064;DHT22;40963;52.168;21.296;2023-02-01T15:08:34;4.70;99.90
55064;DHT22;40963;52.168;21.296;2023-02-01T15:11:04;4.70;99.90
55064;DHT22;40963;52.168;21.296;2023-02-01T15:13:32;4.70;99.90
55064;DHT22;40963;52.168;21.296;2023-02-01T15:16:12;4.70;99.90
55064;DHT22;40963;52.168;21.296;2023-02-01T15:18:38;4.70;99.90
55064;DHT22;40963;52.168;21.296;2023-02-01T15:21:05;4.70;99.90
55064;DHT22;40963;52.168;21.296;2023-02-01T15:23:31;4.70;99.90
55064;DHT22;40963;52.168;21.296;2023-02-01T15:25:57;4.70;99.90
55064;DHT22;40963;52.168;21.296;2023-02-01T15:28:24;4.70;99.90
55064;DHT22;40963;52.168;21.296;2023-02-01T15:33:19;4.80;99.90
55064;DHT22;40963;52.168;21.296;2023-02-01T15:35:50;4.80;99.90
55064;DHT22;40963;52.168;21.296;2023-02-01T15:46:25;4.80;99.90
55064;DHT22;40963;52.168;21.296;2023-02-01T15:48:54;4.80;99.90
55064;DHT22;40963;52.168;21.296;2023-02-01T15:51:25;4.70;99.90
55064;DHT22;40963;52.168;21.296;2023-02-01T15:54:13;4.80;99.90
55064;DHT22;40963;52.168;21.296;2023-02-01T15:56:49;4.70;99.90
55064;DHT22;40963;52.168;21.296;2023-02-01T15:59:19;4.70;99.90
55064;DHT22;40963;52.168;21.296;2023-02-01T16:01:46;4.80;99.90
55064;DHT22;40963;52.168;21.296;2023-02-01T16:07:25;4.80;99.90
55064;DHT22;40963;52.168;21.296;2023-02-01T16:09:53;4.70;99.90
55064;DHT22;40963;52.168;21.296;2023-02-01T16:12:34;4.70;99.90
55064;DHT22;40963;52.168;21.296;2023-02-01T16:15:01;4.70;99.90
55064;DHT22;40963;52.168;21.296;2023-02-01T16:17:27;4.70;99.90
55064;DHT22;40963;52.168;21.296;2023-02-01T16:19:53;4.80;99.90
55064;DHT22;40963;52.168;21.296;2023-02-01T16:22:19;4.70;99.90
55064;DHT22;40963;52.168;21.296;2023-02-01T16:24:44;4.70;99.90
55064;DHT22;40963;52.168;21.296;2023-02-01T16:27:10;4.70;99.90
55064;DHT22;40963;52.168;21.296;2023-02-01T16:29:35;4.70;99.90
55064;DHT22;40963;52.168;21.296;2023-02-01T16:32:01;4.70;99.90
55064;DHT22;40963;52.168;21.296;2023-02-01T16:34:27;4.70;99.90
55064;DHT22;40963;52.168;21.296;2023-02-01T16:36:53;4.70;99.90
55064;DHT22;40963;52.168;21.296;2023-02-01T16:39:22;4.60;99.90
55064;DHT22;40963;52.168;21.296;2023-02-01T16:41:49;4.60;99.90
55064;DHT22;40963;52.168;21.296;2023-02-01T16:44:15;4.60;99.90
55064;DHT22;40963;52.168;21.296;2023-02-01T16:46:45;4.60;99.90
55064;DHT22;40963;52.168;21.296;2023-02-01T16:49:23;4.60;99.90
55064;DHT22;40963;52.168;21.296;2023-02-01T16:51:51;4.60;99.90
55064;DHT22;40963;52.168;21.296;2023-02-01T16:54:18;4.60;99.90
55064;DHT22;40963;52.168;21.296;2023-02-01T16:56:45;4.60;99.90
55064;DHT22;40963;52.168;21.296;2023-02-01T16:59:11;4.50;99.90
55064;DHT22;40963;52.168;21.296;2023-02-01T17:01:38;4.60;99.90
55064;DHT22;40963;52.168;21.296;2023-02-01T17:04:04;4.60;99.90
55064;DHT22;40963;52.168;21.296;2023-02-01T17:06:30;4.50;99.90
55064;DHT22;40963;52.168;21.296;2023-02-01T17:08:58;4.50;99.90
55064;DHT22;40963;52.168;21.296;2023-02-01T17:11:25;4.50;99.90
55064;DHT22;40963;52.168;21.296;2023-02-01T17:13:51;4.50;99.90
55064;DHT22;40963;52.168;21.296;2023-02-01T17:18:43;4.40;99.90
55064;DHT22;40963;52.168;21.296;2023-02-01T17:21:09;4.40;99.90
55064;DHT22;40963;52.168;21.296;2023-02-01T17:23:35;4.40;99.90
55064;DHT22;40963;52.168;21.296;2023-02-01T17:26:01;4.40;99.90
55064;DHT22;40963;52.168;21.296;2023-02-01T17:28:28;4.40;99.90
55064;DHT22;40963;52.168;21.296;2023-02-01T17:30:54;4.40;99.90
55064;DHT22;40963;52.168;21.296;2023-02-01T17:33:34;4.40;99.90
55064;DHT22;40963;52.168;21.296;2023-02-01T17:36:00;4.40;99.90
55064;DHT22;40963;52.168;21.296;2023-02-01T17:38:26;4.40;99.90
55064;DHT22;40963;52.168;21.296;2023-02-01T17:40:52;4.40;99.90
55064;DHT22;40963;52.168;21.296;2023-02-01T17:43:21;4.40;99.90
55064;DHT22;40963;52.168;21.296;2023-02-01T17:46:13;4.40;99.90
55064;DHT22;40963;52.168;21.296;2023-02-01T17:48:38;4.40;99.90
55064;DHT22;40963;52.168;21.296;2023-02-01T17:51:05;4.40;99.90
55064;DHT22;40963;52.168;21.296;2023-02-01T17:53:34;4.40;99.90
55064;DHT22;40963;52.168;21.296;2023-02-01T17:56:00;4.40;99.90
55064;DHT22;40963;52.168;21.296;2023-02-01T17:58:26;4.40;99.90
55064;DHT22;40963;52.168;21.296;2023-02-01T18:00:54;4.40;99.90